sensor_id;sensor_type;location;lat;lon;timestamp;temperature;humidity
4453;DHT22;2239;48.152;11.584;2022-10-17T00:00:29;14.70;99.90
4453;DHT22;2239;48.152;11.584;2022-10-17T00:02:55;14.70;99.90
4453;DHT22;2239;48.152;11.584;2022-10-17T00:05:21;14.70;99.90
4453;DHT22;2239;48.152;11.584;2022-10-17T00:07:47;14.70;99.90
4453;DHT22;2239;48.152;11.584;2022-10-17T00:10:13;14.70;99.90
4453;DHT22;2239;48.152;11.584;2022-10-17T00:12:38;14.70;99.90
4453;DHT22;2239;48.152;11.584;2022-10-17T00:15:06;14.70;99.90
4453;DHT22;2239;48.152;11.584;2022-10-17T00:17:32;14.60;99.90
4453;DHT22;2239;48.152;11.584;2022-10-17T00:19:59;14.70;99.90
4453;DHT22;2239;48.152;11.584;2022-10-17T00:22:25;14.70;99.90
4453;DHT22;2239;48.152;11.584;2022-10-17T00:24:51;14.60;99.90
4453;DHT22;2239;48.152;11.584;2022-10-17T00:27:17;14.50;99.90
4453;DHT22;2239;48.152;11.584;2022-10-17T00:29:46;14.40;99.90
4453;DHT22;2239;48.152;11.584;2022-10-17T00:32:12;14.30;99.90
4453;DHT22;2239;48.152;11.584;2022-10-17T00:34:37;14.20;99.90
4453;DHT22;2239;48.152;11.584;2022-10-17T00:37:03;14.20;99.90
4453;DHT22;2239;48.152;11.584;2022-10-17T00:39:28;14.20;99.90
4453;DHT22;2239;48.152;11.584;2022-10-17T00:41:54;14.20;99.90
4453;DHT22;2239;48.152;11.584;2022-10-17T00:46:55;14.10;99.90
4453;DHT22;2239;48.152;11.584;2022-10-17T00:49:21;14.10;99.90
4453;DHT22;2239;48.152;11.584;2022-10-17T00:51:51;14.00;99.90
4453;DHT22;2239;48.152;11.584;2022-10-17T00:54:22;14.00;99.90
4453;DHT22;2239;48.152;11.584;2022-10-17T00:56:49;13.90;99.90
4453;DHT22;2239;48.152;11.584;2022-10-17T00:59:17;13.80;99.90
4453;DHT22;2239;48.152;11.584;2022-10-17T01:01:50;13.80;99.90
4453;DHT22;2239;48.152;11.584;2022-10-17T01:04:18;13.90;99.90
4453;DHT22;2239;48.152;11.584;2022-10-17T01:06:43;13.90;99.90
4453;DHT22;2239;48.152;11.584;2022-10-17T01:09:09;13.80;99.90
4453;DHT22;2239;48.152;11.584;2022-10-17T01:11:55;13.70;99.90
4453;DHT22;2239;48.152;11.584;2022-10-17T01:14:46;13.60;99.90
4453;DHT22;2239;48.152;11.584;2022-10-17T01:17:23;13.50;99.90
4453;DHT22;2239;48.152;11.584;2022-10-17T01:22:25;13.40;99.90
4453;DHT22;2239;48.152;11.584;2022-10-17T01:28:13;13.40;99.90
4453;DHT22;2239;48.152;11.584;2022-10-17T01:31:05;13.40;99.90
4453;DHT22;2239;48.152;11.584;2022-10-17T01:33:43;13.40;99.90
4453;DHT22;2239;48.152;11.584;2022-10-17T01:39:05;13.30;99.90
4453;DHT22;2239;48.152;11.584;2022-10-17T01:41:43;13.20;99.90
4453;DHT22;2239;48.152;11.584;2022-10-17T01:44:26;13.20;99.90
4453;DHT22;2239;48.152;11.584;2022-10-17T01:46:59;13.10;99.90
4453;DHT22;2239;48.152;11.584;2022-10-17T01:49:28;13.10;99.90
4453;DHT22;2239;48.152;11.584;2022-10-17T01:52:02;13.20;99.90
4453;DHT22;2239;48.152;11.584;2022-10-17T01:57:26;13.20;99.90
4453;DHT22;2239;48.152;11.584;2022-10-17T01:59:54;13.30;99.90
4453;DHT22;2239;48.152;11.584;2022-10-17T02:02:21;13.30;99.90
4453;DHT22;2239;48.152;11.584;2022-10-17T02:04:49;13.30;99.90
4453;DHT22;2239;48.152;11.584;2022-10-17T02:07:16;13.30;99.90
4453;DHT22;2239;48.152;11.584;2022-10-17T02:09:42;13.20;99.90
4453;DHT22;2239;48.152;11.584;2022-10-17T02:12:32;13.20;99.90
4453;DHT22;2239;48.152;11.584;2022-10-17T02:15:32;13.20;99.90
4453;DHT22;2239;48.152;11.584;2022-10-17T02:21:06;13.20;99.90
4453;DHT22;2239;48.152;11.584;2022-10-17T02:23:52;13.10;99.90
4453;DHT22;2239;48.152;11.584;2022-10-17T02:29:12;13.10;99.90
4453;DHT22;2239;48.152;11.584;2022-10-17T02:31:47;13.00;99.90
4453;DHT22;2239;48.152;11.584;2022-10-17T02:36:54;12.90;99.90
4453;DHT22;2239;48.152;11.584;2022-10-17T02:39:22;12.80;99.90
4453;DHT22;2239;48.152;11.584;2022-10-17T02:41:50;12.80;99.90
4453;DHT22;2239;48.152;11.584;2022-10-17T02:44:17;12.70;99.90
4453;DHT22;2239;48.152;11.584;2022-10-17T02:46:48;12.70;99.90
4453;DHT22;2239;48.152;11.584;2022-10-17T02:49:20;12.70;99.90
4453;DHT22;2239;48.152;11.584;2022-10-17T02:54:40;12.70;99.90
4453;DHT22;2239;48.152;11.584;2022-10-17T02:59:35;12.60;99.90
4453;DHT22;2239;48.152;11.584;2022-10-17T03:02:05;12.50;99.90
4453;DHT22;2239;48.152;11.584;2022-10-17T03:04:31;12.50;99.90
4453;DHT22;2239;48.152;11.584;2022-10-17T03:06:57;12.50;99.90
4453;DHT22;2239;48.152;11.584;2022-10-17T03:09:23;12.60;99.90
4453;DHT22;2239;48.152;11.584;2022-10-17T03:11:48;12.60;99.90
4453;DHT22;2239;48.152;11.584;2022-10-17T03:14:15;12.70;99.90
4453;DHT22;2239;48.152;11.584;2022-10-17T03:16:40;12.70;99.90
4453;DHT22;2239;48.152;11.584;2022-10-17T03:19:06;12.70;99.90
4453;DHT22;2239;48.152;11.584;2022-10-17T03:21:32;12.70;99.90
4453;DHT22;2239;48.152;11.584;2022-10-17T03:23:58;12.70;99.90
4453;DHT22;2239;48.152;11.584;2022-10-17T03:26:23;12.80;99.90
4453;DHT22;2239;48.152;11.584;2022-10-17T03:28:49;12.80;99.90
4453;DHT22;2239;48.152;11.584;2022-10-17T03:31:16;12.70;99.90
4453;DHT22;2239;48.152;11.584;2022-10-17T03:33:42;12.70;99.90
4453;DHT22;2239;48.152;11.584;2022-10-17T03:36:11;12.60;99.90
4453;DHT22;2239;48.152;11.584;2022-10-17T03:38:37;12.50;99.90
4453;DHT22;2239;48.152;11.584;2022-10-17T03:41:04;12.40;99.90
4453;DHT22;2239;48.152;11.584;2022-10-17T03:43:29;12.40;99.90
4453;DHT22;2239;48.152;11.584;2022-10-17T03:45:58;12.40;99.90
4453;DHT22;2239;48.152;11.584;2022-10-17T03:48:25;12.50;99.90
4453;DHT22;2239;48.152;11.584;2022-10-17T03:51:00;12.50;99.90
4453;DHT22;2239;48.152;11.584;2022-10-17T03:53:27;12.50;99.90
4453;DHT22;2239;48.152;11.584;2022-10-17T03:55:53;12.50;99.90
4453;DHT22;2239;48.152;11.584;2022-10-17T03:58:18;12.50;99.90
4453;DHT22;2239;48.152;11.584;2022-10-17T04:00:44;12.50;99.90
4453;DHT22;2239;48.152;11.584;2022-10-17T04:03:10;12.50;99.90
4453;DHT22;2239;48.152;11.584;2022-10-17T04:05:35;12.40;99.90
4453;DHT22;2239;48.152;11.584;2022-10-17T04:08:01;12.40;99.90
4453;DHT22;2239;48.152;11.584;2022-10-17T04:10:27;12.40;99.90
4453;DHT22;2239;48.152;11.584;2022-10-17T04:12:52;12.40;99.90
4453;DHT22;2239;48.152;11.584;2022-10-17T04:15:18;12.40;99.90
4453;DHT22;2239;48.152;11.584;2022-10-17T04:17:44;12.40;99.90
4453;DHT22;2239;48.152;11.584;2022-10-17T04:20:09;12.30;99.90
4453;DHT22;2239;48.152;11.584;2022-10-17T04:22:35;12.30;99.90
4453;DHT22;2239;48.152;11.584;2022-10-17T04:25:00;12.30;99.90
4453;DHT22;2239;48.152;11.584;2022-10-17T04:27:26;12.20;99.90
4453;DHT22;2239;48.152;11.584;2022-10-17T04:29:51;12.10;99.90
4453;DHT22;2239;48.152;11.584;2022-10-17T04:32:17;12.00;99.90
4453;DHT22;2239;48.152;11.584;2022-10-17T04:34:43;11.90;99.90
4453;DHT22;2239;48.152;11.584;2022-10-17T04:37:08;11.90;99.90
4453;DHT22;2239;48.152;11.584;2022-10-17T04:39:34;11.80;99.90
4453;DHT22;2239;48.152;11.584;2022-10-17T04:41:59;11.80;99.90
4453;DHT22;2239;48.152;11.584;2022-10-17T04:44:25;11.80;99.90
4453;DHT22;2239;48.152;11.584;2022-10-17T04:46:50;11.90;99.90
4453;DHT22;2239;48.152;11.584;2022-10-17T04:49:16;11.90;99.90
4453;DHT22;2239;48.152;11.584;2022-10-17T04:51:41;12.00;99.90
4453;DHT22;2239;48.152;11.584;2022-10-17T04:54:07;12.00;99.90
4453;DHT22;2239;48.152;11.584;2022-10-17T04:56:33;12.00;99.90
4453;DHT22;2239;48.152;11.584;2022-10-17T04:58:58;12.00;99.90
4453;DHT22;2239;48.152;11.584;2022-10-17T05:01:25;12.00;99.90
4453;DHT22;2239;48.152;11.584;2022-10-17T05:03:51;12.00;99.90
4453;DHT22;2239;48.152;11.584;2022-10-17T05:06:19;12.00;99.90
4453;DHT22;2239;48.152;11.584;2022-10-17T05:08:46;11.90;99.90
4453;DHT22;2239;48.152;11.584;2022-10-17T05:11:41;11.90;99.90
4453;DHT22;2239;48.152;11.584;2022-10-17T05:14:06;11.90;99.90
4453;DHT22;2239;48.152;11.584;2022-10-17T05:16:32;11.90;99.90
4453;DHT22;2239;48.152;11.584;2022-10-17T05:18:58;11.80;99.90
4453;DHT22;2239;48.152;11.584;2022-10-17T05:21:25;11.80;99.90
4453;DHT22;2239;48.152;11.584;2022-10-17T05:23:52;11.70;99.90
4453;DHT22;2239;48.152;11.584;2022-10-17T05:26:18;11.60;99.90
4453;DHT22;2239;48.152;11.584;2022-10-17T05:28:43;11.60;99.90
4453;DHT22;2239;48.152;11.584;2022-10-17T05:31:10;11.60;99.90
4453;DHT22;2239;48.152;11.584;2022-10-17T05:33:36;11.60;99.90
4453;DHT22;2239;48.152;11.584;2022-10-17T05:36:03;11.70;99.90
4453;DHT22;2239;48.152;11.584;2022-10-17T05:38:29;11.70;99.90
4453;DHT22;2239;48.152;11.584;2022-10-17T05:40:58;11.70;99.90
4453;DHT22;2239;48.152;11.584;2022-10-17T05:43:24;11.70;99.90
4453;DHT22;2239;48.152;11.584;2022-10-17T05:45:50;11.80;99.90
4453;DHT22;2239;48.152;11.584;2022-10-17T05:48:16;11.80;99.90
4453;DHT22;2239;48.152;11.584;2022-10-17T05:50:42;12.00;99.90
4453;DHT22;2239;48.152;11.584;2022-10-17T05:53:08;12.10;99.90
4453;DHT22;2239;48.152;11.584;2022-10-17T05:55:34;12.20;99.90
4453;DHT22;2239;48.152;11.584;2022-10-17T05:58:00;12.30;99.90
4453;DHT22;2239;48.152;11.584;2022-10-17T06:00:26;12.50;99.90
4453;DHT22;2239;48.152;11.584;2022-10-17T06:02:52;12.70;99.90
4453;DHT22;2239;48.152;11.584;2022-10-17T06:05:18;13.00;99.90
4453;DHT22;2239;48.152;11.584;2022-10-17T06:07:44;13.20;99.90
4453;DHT22;2239;48.152;11.584;2022-10-17T06:10:10;13.40;99.90
4453;DHT22;2239;48.152;11.584;2022-10-17T06:12:41;13.70;99.90
4453;DHT22;2239;48.152;11.584;2022-10-17T06:15:07;13.90;99.90
4453;DHT22;2239;48.152;11.584;2022-10-17T06:17:33;14.00;99.90
4453;DHT22;2239;48.152;11.584;2022-10-17T06:19:59;14.10;99.90
4453;DHT22;2239;48.152;11.584;2022-10-17T06:22:25;14.20;99.90
4453;DHT22;2239;48.152;11.584;2022-10-17T06:24:50;14.10;99.90
4453;DHT22;2239;48.152;11.584;2022-10-17T06:27:18;14.20;99.90
4453;DHT22;2239;48.152;11.584;2022-10-17T06:29:44;14.20;99.90
4453;DHT22;2239;48.152;11.584;2022-10-17T06:32:10;14.20;99.90
4453;DHT22;2239;48.152;11.584;2022-10-17T06:34:35;14.10;99.90
4453;DHT22;2239;48.152;11.584;2022-10-17T06:37:01;14.10;99.90
4453;DHT22;2239;48.152;11.584;2022-10-17T06:39:26;14.20;99.90
4453;DHT22;2239;48.152;11.584;2022-10-17T06:41:58;14.40;99.90
4453;DHT22;2239;48.152;11.584;2022-10-17T06:44:24;14.50;99.90
4453;DHT22;2239;48.152;11.584;2022-10-17T06:46:52;14.70;99.90
4453;DHT22;2239;48.152;11.584;2022-10-17T06:49:18;15.20;99.90
4453;DHT22;2239;48.152;11.584;2022-10-17T06:51:43;15.60;99.90
4453;DHT22;2239;48.152;11.584;2022-10-17T06:54:09;16.00;99.90
4453;DHT22;2239;48.152;11.584;2022-10-17T06:56:37;16.20;99.90
4453;DHT22;2239;48.152;11.584;2022-10-17T06:59:03;16.30;99.90
4453;DHT22;2239;48.152;11.584;2022-10-17T07:01:30;16.30;99.90
4453;DHT22;2239;48.152;11.584;2022-10-17T07:03:56;16.60;99.90
4453;DHT22;2239;48.152;11.584;2022-10-17T07:06:21;17.00;99.90
4453;DHT22;2239;48.152;11.584;2022-10-17T07:08:49;17.50;99.90
4453;DHT22;2239;48.152;11.584;2022-10-17T07:11:17;17.80;99.90
4453;DHT22;2239;48.152;11.584;2022-10-17T07:13:43;17.90;99.90
4453;DHT22;2239;48.152;11.584;2022-10-17T07:16:10;18.00;99.90
4453;DHT22;2239;48.152;11.584;2022-10-17T07:18:35;17.90;99.90
4453;DHT22;2239;48.152;11.584;2022-10-17T07:21:01;18.00;99.90
4453;DHT22;2239;48.152;11.584;2022-10-17T07:23:28;18.10;99.90
4453;DHT22;2239;48.152;11.584;2022-10-17T07:25:59;18.20;99.90
4453;DHT22;2239;48.152;11.584;2022-10-17T07:28:26;18.40;99.90
4453;DHT22;2239;48.152;11.584;2022-10-17T07:30:52;18.70;99.90
4453;DHT22;2239;48.152;11.584;2022-10-17T07:33:17;18.90;99.90
4453;DHT22;2239;48.152;11.584;2022-10-17T07:35:43;19.30;99.90
4453;DHT22;2239;48.152;11.584;2022-10-17T07:38:09;19.80;99.90
4453;DHT22;2239;48.152;11.584;2022-10-17T07:40:34;20.30;99.40
4453;DHT22;2239;48.152;11.584;2022-10-17T07:43:00;20.60;97.80
4453;DHT22;2239;48.152;11.584;2022-10-17T07:45:26;21.20;97.50
4453;DHT22;2239;48.152;11.584;2022-10-17T07:47:56;21.50;96.10
4453;DHT22;2239;48.152;11.584;2022-10-17T07:50:22;21.80;95.40
4453;DHT22;2239;48.152;11.584;2022-10-17T07:52:48;22.00;94.40
4453;DHT22;2239;48.152;11.584;2022-10-17T07:55:14;22.10;94.10
4453;DHT22;2239;48.152;11.584;2022-10-17T07:57:39;22.20;93.70
4453;DHT22;2239;48.152;11.584;2022-10-17T08:00:06;22.40;93.40
4453;DHT22;2239;48.152;11.584;2022-10-17T08:02:34;22.70;93.20
4453;DHT22;2239;48.152;11.584;2022-10-17T08:04:59;23.00;92.80
4453;DHT22;2239;48.152;11.584;2022-10-17T08:07:25;23.30;92.40
4453;DHT22;2239;48.152;11.584;2022-10-17T08:09:51;23.50;91.60
4453;DHT22;2239;48.152;11.584;2022-10-17T08:12:16;23.70;91.30
4453;DHT22;2239;48.152;11.584;2022-10-17T08:14:42;23.80;90.50
4453;DHT22;2239;48.152;11.584;2022-10-17T08:17:08;23.80;90.80
4453;DHT22;2239;48.152;11.584;2022-10-17T08:19:37;24.00;90.50
4453;DHT22;2239;48.152;11.584;2022-10-17T08:22:04;24.20;89.30
4453;DHT22;2239;48.152;11.584;2022-10-17T08:24:30;24.40;88.60
4453;DHT22;2239;48.152;11.584;2022-10-17T08:26:56;24.60;88.30
4453;DHT22;2239;48.152;11.584;2022-10-17T08:29:23;24.70;87.40
4453;DHT22;2239;48.152;11.584;2022-10-17T08:31:48;24.90;86.40
4453;DHT22;2239;48.152;11.584;2022-10-17T08:34:14;24.90;86.70
4453;DHT22;2239;48.152;11.584;2022-10-17T08:36:40;25.10;86.10
4453;DHT22;2239;48.152;11.584;2022-10-17T08:39:05;25.30;85.00
4453;DHT22;2239;48.152;11.584;2022-10-17T08:46:43;25.60;83.20
4453;DHT22;2239;48.152;11.584;2022-10-17T08:49:15;25.70;83.90
4453;DHT22;2239;48.152;11.584;2022-10-17T08:51:50;25.80;83.30
4453;DHT22;2239;48.152;11.584;2022-10-17T08:54:21;26.00;83.30
4453;DHT22;2239;48.152;11.584;2022-10-17T08:56:50;26.10;83.10
4453;DHT22;2239;48.152;11.584;2022-10-17T08:59:26;26.40;83.70
4453;DHT22;2239;48.152;11.584;2022-10-17T09:02:15;26.70;81.90
4453;DHT22;2239;48.152;11.584;2022-10-17T09:05:02;26.80;80.60
4453;DHT22;2239;48.152;11.584;2022-10-17T09:10:45;26.80;78.50
4453;DHT22;2239;48.152;11.584;2022-10-17T09:18:24;27.20;75.80
4453;DHT22;2239;48.152;11.584;2022-10-17T09:21:00;27.20;76.10
4453;DHT22;2239;48.152;11.584;2022-10-17T09:23:36;27.10;74.00
4453;DHT22;2239;48.152;11.584;2022-10-17T09:26:09;27.30;75.70
4453;DHT22;2239;48.152;11.584;2022-10-17T09:28:37;27.40;75.80
4453;DHT22;2239;48.152;11.584;2022-10-17T09:31:21;27.60;74.90
4453;DHT22;2239;48.152;11.584;2022-10-17T09:33:53;27.60;74.20
4453;DHT22;2239;48.152;11.584;2022-10-17T09:36:28;27.70;74.20
4453;DHT22;2239;48.152;11.584;2022-10-17T09:39:00;27.90;73.60
4453;DHT22;2239;48.152;11.584;2022-10-17T09:49:33;27.70;72.90
4453;DHT22;2239;48.152;11.584;2022-10-17T09:52:01;27.90;73.70
4453;DHT22;2239;48.152;11.584;2022-10-17T09:54:49;28.00;72.90
4453;DHT22;2239;48.152;11.584;2022-10-17T09:57:16;28.00;73.00
4453;DHT22;2239;48.152;11.584;2022-10-17T09:59:57;27.90;71.50
4453;DHT22;2239;48.152;11.584;2022-10-17T10:02:25;27.90;71.80
4453;DHT22;2239;48.152;11.584;2022-10-17T10:05:04;27.70;70.70
4453;DHT22;2239;48.152;11.584;2022-10-17T10:07:33;27.80;71.60
4453;DHT22;2239;48.152;11.584;2022-10-17T10:09:59;27.90;71.60
4453;DHT22;2239;48.152;11.584;2022-10-17T10:12:36;27.90;72.10
4453;DHT22;2239;48.152;11.584;2022-10-17T10:15:36;27.90;70.80
4453;DHT22;2239;48.152;11.584;2022-10-17T10:23:32;27.90;71.00
4453;DHT22;2239;48.152;11.584;2022-10-17T10:26:03;27.90;71.00
4453;DHT22;2239;48.152;11.584;2022-10-17T10:28:32;27.90;71.20
4453;DHT22;2239;48.152;11.584;2022-10-17T10:31:06;28.00;70.10
4453;DHT22;2239;48.152;11.584;2022-10-17T10:33:35;28.00;70.00
4453;DHT22;2239;48.152;11.584;2022-10-17T10:36:04;28.10;69.80
4453;DHT22;2239;48.152;11.584;2022-10-17T10:38:32;28.10;69.30
4453;DHT22;2239;48.152;11.584;2022-10-17T10:41:09;28.20;68.90
4453;DHT22;2239;48.152;11.584;2022-10-17T10:43:45;28.20;69.20
4453;DHT22;2239;48.152;11.584;2022-10-17T10:48:50;28.30;68.20
4453;DHT22;2239;48.152;11.584;2022-10-17T10:51:20;28.30;67.20
4453;DHT22;2239;48.152;11.584;2022-10-17T10:54:04;28.10;67.80
4453;DHT22;2239;48.152;11.584;2022-10-17T10:56:42;28.10;68.40
4453;DHT22;2239;48.152;11.584;2022-10-17T10:59:14;28.40;67.60
4453;DHT22;2239;48.152;11.584;2022-10-17T11:02:09;28.50;66.60
4453;DHT22;2239;48.152;11.584;2022-10-17T11:04:43;28.60;67.00
4453;DHT22;2239;48.152;11.584;2022-10-17T11:07:15;28.80;66.70
4453;DHT22;2239;48.152;11.584;2022-10-17T11:12:48;29.00;66.20
4453;DHT22;2239;48.152;11.584;2022-10-17T11:15:29;29.10;67.00
4453;DHT22;2239;48.152;11.584;2022-10-17T11:18:10;29.20;65.20
4453;DHT22;2239;48.152;11.584;2022-10-17T11:23:40;29.20;66.00
4453;DHT22;2239;48.152;11.584;2022-10-17T11:26:12;29.20;65.60
4453;DHT22;2239;48.152;11.584;2022-10-17T11:28:40;29.40;65.90
4453;DHT22;2239;48.152;11.584;2022-10-17T11:31:09;29.40;64.70
4453;DHT22;2239;48.152;11.584;2022-10-17T11:33:44;29.50;63.50
4453;DHT22;2239;48.152;11.584;2022-10-17T11:36:12;29.60;64.40
4453;DHT22;2239;48.152;11.584;2022-10-17T11:38:44;29.70;64.30
4453;DHT22;2239;48.152;11.584;2022-10-17T11:41:33;30.00;63.80
4453;DHT22;2239;48.152;11.584;2022-10-17T11:44:07;30.00;61.60
4453;DHT22;2239;48.152;11.584;2022-10-17T11:46:36;29.70;60.30
4453;DHT22;2239;48.152;11.584;2022-10-17T11:49:12;29.30;60.70
4453;DHT22;2239;48.152;11.584;2022-10-17T11:51:50;29.20;62.00
4453;DHT22;2239;48.152;11.584;2022-10-17T11:57:31;29.70;61.00
4453;DHT22;2239;48.152;11.584;2022-10-17T12:03:06;29.70;58.50
4453;DHT22;2239;48.152;11.584;2022-10-17T12:17:30;29.80;58.50
4453;DHT22;2239;48.152;11.584;2022-10-17T12:25:47;29.70;53.20
4453;DHT22;2239;48.152;11.584;2022-10-17T12:31:10;29.70;55.00
4453;DHT22;2239;48.152;11.584;2022-10-17T12:34:00;30.00;56.70
4453;DHT22;2239;48.152;11.584;2022-10-17T12:49:50;30.40;55.10
4453;DHT22;2239;48.152;11.584;2022-10-17T12:55:00;30.30;52.50
4453;DHT22;2239;48.152;11.584;2022-10-17T12:57:49;30.00;53.80
4453;DHT22;2239;48.152;11.584;2022-10-17T13:00:36;30.20;55.70
4453;DHT22;2239;48.152;11.584;2022-10-17T13:03:14;30.30;53.40
4453;DHT22;2239;48.152;11.584;2022-10-17T13:05:46;30.40;54.00
4453;DHT22;2239;48.152;11.584;2022-10-17T13:08:22;30.30;52.80
4453;DHT22;2239;48.152;11.584;2022-10-17T13:10:50;30.20;52.70
4453;DHT22;2239;48.152;11.584;2022-10-17T13:13:40;30.00;53.50
4453;DHT22;2239;48.152;11.584;2022-10-17T13:16:07;29.90;53.00
4453;DHT22;2239;48.152;11.584;2022-10-17T13:18:33;29.60;51.80
4453;DHT22;2239;48.152;11.584;2022-10-17T13:23:33;29.40;55.80
4453;DHT22;2239;48.152;11.584;2022-10-17T13:26:04;29.60;54.90
4453;DHT22;2239;48.152;11.584;2022-10-17T13:28:30;29.70;52.70
4453;DHT22;2239;48.152;11.584;2022-10-17T13:30:55;29.70;54.80
4453;DHT22;2239;48.152;11.584;2022-10-17T13:33:34;29.60;51.90
4453;DHT22;2239;48.152;11.584;2022-10-17T13:36:02;29.40;52.50
4453;DHT22;2239;48.152;11.584;2022-10-17T13:38:30;29.30;52.50
4453;DHT22;2239;48.152;11.584;2022-10-17T13:40:57;29.00;50.70
4453;DHT22;2239;48.152;11.584;2022-10-17T13:43:23;28.90;52.80
4453;DHT22;2239;48.152;11.584;2022-10-17T13:45:52;28.90;50.70
4453;DHT22;2239;48.152;11.584;2022-10-17T13:48:21;29.10;52.10
4453;DHT22;2239;48.152;11.584;2022-10-17T13:50:50;29.30;50.00
4453;DHT22;2239;48.152;11.584;2022-10-17T13:53:24;29.30;51.70
4453;DHT22;2239;48.152;11.584;2022-10-17T13:58:17;29.50;50.40
4453;DHT22;2239;48.152;11.584;2022-10-17T14:00:44;29.40;49.30
4453;DHT22;2239;48.152;11.584;2022-10-17T14:03:10;29.50;52.80
4453;DHT22;2239;48.152;11.584;2022-10-17T14:06:04;29.60;53.30
4453;DHT22;2239;48.152;11.584;2022-10-17T14:08:32;29.50;54.20
4453;DHT22;2239;48.152;11.584;2022-10-17T14:10:59;29.60;54.00
4453;DHT22;2239;48.152;11.584;2022-10-17T14:13:26;29.50;53.70
4453;DHT22;2239;48.152;11.584;2022-10-17T14:15:55;29.70;54.60
4453;DHT22;2239;48.152;11.584;2022-10-17T14:18:28;29.70;54.10
4453;DHT22;2239;48.152;11.584;2022-10-17T14:20:53;29.60;53.00
4453;DHT22;2239;48.152;11.584;2022-10-17T14:23:32;29.50;54.80
4453;DHT22;2239;48.152;11.584;2022-10-17T14:28:39;29.50;53.90
4453;DHT22;2239;48.152;11.584;2022-10-17T14:31:18;29.30;53.50
4453;DHT22;2239;48.152;11.584;2022-10-17T14:33:46;29.10;55.20
4453;DHT22;2239;48.152;11.584;2022-10-17T14:36:13;29.00;53.80
4453;DHT22;2239;48.152;11.584;2022-10-17T14:38:47;29.00;54.20
4453;DHT22;2239;48.152;11.584;2022-10-17T14:41:22;29.00;53.30
4453;DHT22;2239;48.152;11.584;2022-10-17T14:44:00;28.90;53.90
4453;DHT22;2239;48.152;11.584;2022-10-17T14:46:27;28.90;54.10
4453;DHT22;2239;48.152;11.584;2022-10-17T14:48:55;28.90;54.60
4453;DHT22;2239;48.152;11.584;2022-10-17T14:51:21;28.80;54.30
4453;DHT22;2239;48.152;11.584;2022-10-17T14:54:17;28.80;55.00
4453;DHT22;2239;48.152;11.584;2022-10-17T14:56:49;28.70;55.00
4453;DHT22;2239;48.152;11.584;2022-10-17T14:59:15;28.50;55.70
4453;DHT22;2239;48.152;11.584;2022-10-17T15:01:42;28.50;55.80
4453;DHT22;2239;48.152;11.584;2022-10-17T15:04:07;28.50;56.00
4453;DHT22;2239;48.152;11.584;2022-10-17T15:06:35;28.30;56.30
4453;DHT22;2239;48.152;11.584;2022-10-17T15:09:01;28.30;56.60
4453;DHT22;2239;48.152;11.584;2022-10-17T15:11:27;28.20;56.30
4453;DHT22;2239;48.152;11.584;2022-10-17T15:13:53;28.10;56.90
4453;DHT22;2239;48.152;11.584;2022-10-17T15:16:24;28.00;58.00
4453;DHT22;2239;48.152;11.584;2022-10-17T15:18:50;27.80;58.70
4453;DHT22;2239;48.152;11.584;2022-10-17T15:21:18;27.70;59.20
4453;DHT22;2239;48.152;11.584;2022-10-17T15:23:44;27.50;59.50
4453;DHT22;2239;48.152;11.584;2022-10-17T15:26:22;27.40;60.10
4453;DHT22;2239;48.152;11.584;2022-10-17T15:28:49;27.30;60.40
4453;DHT22;2239;48.152;11.584;2022-10-17T15:31:18;27.20;60.60
4453;DHT22;2239;48.152;11.584;2022-10-17T15:33:44;26.90;61.00
4453;DHT22;2239;48.152;11.584;2022-10-17T15:36:27;26.70;62.10
4453;DHT22;2239;48.152;11.584;2022-10-17T15:38:56;26.50;62.80
4453;DHT22;2239;48.152;11.584;2022-10-17T15:41:24;26.30;63.40
4453;DHT22;2239;48.152;11.584;2022-10-17T15:43:50;26.20;64.20
4453;DHT22;2239;48.152;11.584;2022-10-17T15:46:22;26.00;64.50
4453;DHT22;2239;48.152;11.584;2022-10-17T15:48:48;25.70;65.20
4453;DHT22;2239;48.152;11.584;2022-10-17T15:51:14;25.50;65.50
4453;DHT22;2239;48.152;11.584;2022-10-17T15:53:40;25.30;65.90
4453;DHT22;2239;48.152;11.584;2022-10-17T15:56:06;25.20;66.30
4453;DHT22;2239;48.152;11.584;2022-10-17T15:58:38;25.00;66.50
4453;DHT22;2239;48.152;11.584;2022-10-17T16:01:05;24.80;66.60
4453;DHT22;2239;48.152;11.584;2022-10-17T16:03:32;24.60;67.20
4453;DHT22;2239;48.152;11.584;2022-10-17T16:05:58;24.50;67.40
4453;DHT22;2239;48.152;11.584;2022-10-17T16:08:23;24.40;67.70
4453;DHT22;2239;48.152;11.584;2022-10-17T16:10:50;24.30;68.40
4453;DHT22;2239;48.152;11.584;2022-10-17T16:13:22;24.20;69.00
4453;DHT22;2239;48.152;11.584;2022-10-17T16:15:48;24.00;69.70
4453;DHT22;2239;48.152;11.584;2022-10-17T16:18:15;23.90;70.40
4453;DHT22;2239;48.152;11.584;2022-10-17T16:20:41;23.70;71.00
4453;DHT22;2239;48.152;11.584;2022-10-17T16:23:06;23.60;71.50
4453;DHT22;2239;48.152;11.584;2022-10-17T16:25:33;23.50;72.30
4453;DHT22;2239;48.152;11.584;2022-10-17T16:27:59;23.40;72.80
4453;DHT22;2239;48.152;11.584;2022-10-17T16:30:27;23.30;74.00
4453;DHT22;2239;48.152;11.584;2022-10-17T16:32:54;23.10;74.90
4453;DHT22;2239;48.152;11.584;2022-10-17T16:35:23;22.90;76.70
4453;DHT22;2239;48.152;11.584;2022-10-17T16:37:49;22.70;77.70
4453;DHT22;2239;48.152;11.584;2022-10-17T16:40:18;22.60;78.50
4453;DHT22;2239;48.152;11.584;2022-10-17T16:42:47;22.40;80.10
4453;DHT22;2239;48.152;11.584;2022-10-17T16:45:19;22.30;80.70
4453;DHT22;2239;48.152;11.584;2022-10-17T16:47:45;22.10;82.40
4453;DHT22;2239;48.152;11.584;2022-10-17T16:50:11;21.90;83.10
4453;DHT22;2239;48.152;11.584;2022-10-17T16:52:37;21.80;84.30
4453;DHT22;2239;48.152;11.584;2022-10-17T16:55:02;21.70;85.90
4453;DHT22;2239;48.152;11.584;2022-10-17T16:57:29;21.50;87.10
4453;DHT22;2239;48.152;11.584;2022-10-17T16:59:55;21.40;88.50
4453;DHT22;2239;48.152;11.584;2022-10-17T17:02:20;21.20;89.60
4453;DHT22;2239;48.152;11.584;2022-10-17T17:04:46;21.20;90.10
4453;DHT22;2239;48.152;11.584;2022-10-17T17:07:12;21.10;90.70
4453;DHT22;2239;48.152;11.584;2022-10-17T17:09:38;21.00;91.00
4453;DHT22;2239;48.152;11.584;2022-10-17T17:12:04;21.00;91.40
4453;DHT22;2239;48.152;11.584;2022-10-17T17:14:30;20.90;91.80
4453;DHT22;2239;48.152;11.584;2022-10-17T17:16:56;20.80;92.20
4453;DHT22;2239;48.152;11.584;2022-10-17T17:19:21;20.70;92.50
4453;DHT22;2239;48.152;11.584;2022-10-17T17:21:47;20.60;92.70
4453;DHT22;2239;48.152;11.584;2022-10-17T17:24:16;20.60;93.30
4453;DHT22;2239;48.152;11.584;2022-10-17T17:26:42;20.50;93.70
4453;DHT22;2239;48.152;11.584;2022-10-17T17:29:08;20.40;94.00
4453;DHT22;2239;48.152;11.584;2022-10-17T17:31:34;20.20;94.50
4453;DHT22;2239;48.152;11.584;2022-10-17T17:34:00;20.10;94.90
4453;DHT22;2239;48.152;11.584;2022-10-17T17:36:32;20.00;95.20
4453;DHT22;2239;48.152;11.584;2022-10-17T17:38:59;19.90;95.70
4453;DHT22;2239;48.152;11.584;2022-10-17T17:41:26;19.80;96.20
4453;DHT22;2239;48.152;11.584;2022-10-17T17:43:52;19.90;96.40
4453;DHT22;2239;48.152;11.584;2022-10-17T17:46:19;19.80;96.50
4453;DHT22;2239;48.152;11.584;2022-10-17T17:48:46;19.70;96.60
4453;DHT22;2239;48.152;11.584;2022-10-17T17:51:14;19.60;97.20